Queanbeyan, Australia
Current Conditions -  °F | °C
As of 3:00 AM on Tuesday 23 Dec 2014 (Local Time) from YSCB Reporting Station
Light Rain Light Rain  
Wind Chill: 64°   Ceiling: 6200
Heat Index: 64°   Visibility: 6mi
Dew Point: 63°   Wind: 5mph
Humidity: 94%   Direction: 50°NE
Pressure: 29.97"   Gusts: NA
Location:  35.35°S, 149.23°E
Report Text: YSCB 221600Z AUTO 05004KT 9999 -RA BKN062 OVC086 18/17 Q1015 RERA
Loading
Personal Weather Stations






























Interactive Weather Map New forecast layout! Learn more

10-Day Weather Forecast

Advertisements
Track Severe Weather on mobile